KBKE/BKE METAR and TAF weather

Enter ICAO airport designator
Station Type Date Time Source
KBKE METAR 2020/09/19 21:53 UTC NOAA

KBKE 192153Z AUTO 33008KT 10SM OVC075 19/06 A3007 RMK AO2 SLP168 T01940061


Station Type Date Time Source
KBKE Decoded METAR 2020/09/19 21:53 UTC NOAA

BAKER MUNICIPAL AIRPORT, OR, United States (KBKE) 44-50N 117-49W 1024M
Sep 19, 2020 - 05:53 PM EDT / 2020.09.19 2153 UTC
Wind: from the NNW (330 degrees) at 9 MPH (8 KT):0
Visibility: 10 mile(s):0
Sky conditions: overcast
Temperature: 66.9 F (19.4 C)
Dew Point: 43.0 F (6.1 C)
Relative Humidity: 41%
Pressure (altimeter): 30.07 in. Hg (1018 hPa)
ob: KBKE 192153Z AUTO 33008KT 10SM OVC075 19/06 A3007 RMK AO2 SLP168 T01940061
cycle: 22

Station Type Date Time Source
KBKE TAF 2020/09/19 18:22 UTC NOAA

TAF KBKE 191720Z 1918/2018 VRB04KT 6SM FU OVC100
FM191900 32010KT 6SM FU SCT050
FM192100 32010KT P6SM VCSH BKN050
FM200200 30005KT P6SM SCT050
FM200500 VRB03KT P6SM VCFG FEW100

Example: see airport list